sensor_id;sensor_type;location;lat;lon;timestamp;P1;durP1;ratioP1;P2;durP2;ratioP2
84246;SDS011;74385;53.360;6.290;2024-01-30T00:02:00;21.55;;;13.05;;
84246;SDS011;74385;53.360;6.290;2024-01-30T00:04:26;21.83;;;13.20;;
84246;SDS011;74385;53.360;6.290;2024-01-30T00:06:52;20.98;;;12.68;;
84246;SDS011;74385;53.360;6.290;2024-01-30T00:09:18;20.92;;;12.88;;
84246;SDS011;74385;53.360;6.290;2024-01-30T00:11:44;22.00;;;13.73;;
84246;SDS011;74385;53.360;6.290;2024-01-30T00:14:10;20.02;;;12.25;;
84246;SDS011;74385;53.360;6.290;2024-01-30T00:16:37;20.35;;;12.52;;
84246;SDS011;74385;53.360;6.290;2024-01-30T00:19:03;19.27;;;13.20;;
84246;SDS011;74385;53.360;6.290;2024-01-30T00:21:29;19.30;;;13.43;;
84246;SDS011;74385;53.360;6.290;2024-01-30T00:23:55;25.67;;;13.10;;
84246;SDS011;74385;53.360;6.290;2024-01-30T00:26:21;25.40;;;13.70;;
84246;SDS011;74385;53.360;6.290;2024-01-30T00:28:47;18.42;;;12.13;;
84246;SDS011;74385;53.360;6.290;2024-01-30T00:31:13;20.15;;;12.52;;
84246;SDS011;74385;53.360;6.290;2024-01-30T00:33:40;24.13;;;13.95;;
84246;SDS011;74385;53.360;6.290;2024-01-30T00:36:07;20.90;;;11.85;;
84246;SDS011;74385;53.360;6.290;2024-01-30T00:38:33;21.95;;;13.25;;
84246;SDS011;74385;53.360;6.290;2024-01-30T00:40:59;22.38;;;13.80;;
84246;SDS011;74385;53.360;6.290;2024-01-30T00:43:26;23.38;;;13.70;;
84246;SDS011;74385;53.360;6.290;2024-01-30T00:45:52;22.45;;;13.88;;
84246;SDS011;74385;53.360;6.290;2024-01-30T00:48:19;25.05;;;13.50;;
84246;SDS011;74385;53.360;6.290;2024-01-30T00:50:45;22.67;;;14.45;;
84246;SDS011;74385;53.360;6.290;2024-01-30T00:53:11;22.05;;;13.43;;
84246;SDS011;74385;53.360;6.290;2024-01-30T00:55:37;20.95;;;12.77;;
84246;SDS011;74385;53.360;6.290;2024-01-30T00:58:04;23.90;;;13.18;;
84246;SDS011;74385;53.360;6.290;2024-01-30T01:00:30;21.98;;;13.90;;
84246;SDS011;74385;53.360;6.290;2024-01-30T01:02:57;23.00;;;14.35;;
84246;SDS011;74385;53.360;6.290;2024-01-30T01:05:23;25.15;;;14.68;;
84246;SDS011;74385;53.360;6.290;2024-01-30T01:07:49;22.15;;;13.73;;
84246;SDS011;74385;53.360;6.290;2024-01-30T01:10:16;18.70;;;12.00;;
84246;SDS011;74385;53.360;6.290;2024-01-30T01:12:42;21.52;;;12.77;;
84246;SDS011;74385;53.360;6.290;2024-01-30T01:15:08;21.80;;;13.77;;
84246;SDS011;74385;53.360;6.290;2024-01-30T01:17:35;23.83;;;14.50;;
84246;SDS011;74385;53.360;6.290;2024-01-30T01:20:01;19.70;;;12.50;;
84246;SDS011;74385;53.360;6.290;2024-01-30T01:22:28;22.10;;;13.73;;
84246;SDS011;74385;53.360;6.290;2024-01-30T01:24:54;23.83;;;13.70;;
84246;SDS011;74385;53.360;6.290;2024-01-30T01:27:20;21.85;;;13.18;;
84246;SDS011;74385;53.360;6.290;2024-01-30T01:29:46;22.23;;;13.77;;
84246;SDS011;74385;53.360;6.290;2024-01-30T01:32:12;23.85;;;13.10;;
84246;SDS011;74385;53.360;6.290;2024-01-30T01:34:38;21.92;;;13.63;;
84246;SDS011;74385;53.360;6.290;2024-01-30T01:37:04;22.42;;;13.90;;
84246;SDS011;74385;53.360;6.290;2024-01-30T01:39:30;22.23;;;13.75;;
84246;SDS011;74385;53.360;6.290;2024-01-30T01:41:56;21.90;;;12.57;;
84246;SDS011;74385;53.360;6.290;2024-01-30T01:44:22;20.50;;;13.02;;
84246;SDS011;74385;53.360;6.290;2024-01-30T01:46:48;21.92;;;13.75;;
84246;SDS011;74385;53.360;6.290;2024-01-30T01:49:15;21.75;;;14.15;;
84246;SDS011;74385;53.360;6.290;2024-01-30T01:51:41;20.70;;;13.40;;
84246;SDS011;74385;53.360;6.290;2024-01-30T01:54:09;21.58;;;13.85;;
84246;SDS011;74385;53.360;6.290;2024-01-30T01:56:36;22.13;;;13.43;;
84246;SDS011;74385;53.360;6.290;2024-01-30T01:59:06;24.48;;;13.52;;
84246;SDS011;74385;53.360;6.290;2024-01-30T02:01:33;28.17;;;13.57;;
84246;SDS011;74385;53.360;6.290;2024-01-30T02:04:00;24.77;;;13.23;;
84246;SDS011;74385;53.360;6.290;2024-01-30T02:06:26;20.67;;;12.82;;
84246;SDS011;74385;53.360;6.290;2024-01-30T02:08:52;18.60;;;12.40;;
84246;SDS011;74385;53.360;6.290;2024-01-30T02:11:19;20.90;;;13.05;;
84246;SDS011;74385;53.360;6.290;2024-01-30T02:13:46;23.52;;;14.13;;
84246;SDS011;74385;53.360;6.290;2024-01-30T02:16:12;19.80;;;13.43;;
84246;SDS011;74385;53.360;6.290;2024-01-30T02:18:38;21.77;;;12.23;;
84246;SDS011;74385;53.360;6.290;2024-01-30T02:21:08;20.05;;;12.65;;
84246;SDS011;74385;53.360;6.290;2024-01-30T02:23:34;21.77;;;12.43;;
84246;SDS011;74385;53.360;6.290;2024-01-30T02:26:00;22.60;;;13.55;;
84246;SDS011;74385;53.360;6.290;2024-01-30T02:28:26;20.65;;;12.23;;
84246;SDS011;74385;53.360;6.290;2024-01-30T02:30:52;20.27;;;12.73;;
84246;SDS011;74385;53.360;6.290;2024-01-30T02:33:19;21.98;;;12.75;;
84246;SDS011;74385;53.360;6.290;2024-01-30T02:35:47;22.95;;;13.40;;
84246;SDS011;74385;53.360;6.290;2024-01-30T02:38:13;22.17;;;13.13;;
84246;SDS011;74385;53.360;6.290;2024-01-30T02:40:39;19.75;;;12.18;;
84246;SDS011;74385;53.360;6.290;2024-01-30T02:43:05;21.27;;;14.07;;
84246;SDS011;74385;53.360;6.290;2024-01-30T02:45:31;20.80;;;13.90;;
84246;SDS011;74385;53.360;6.290;2024-01-30T02:47:57;16.95;;;11.88;;
84246;SDS011;74385;53.360;6.290;2024-01-30T02:50:23;20.55;;;13.45;;
84246;SDS011;74385;53.360;6.290;2024-01-30T02:52:49;19.33;;;13.43;;
84246;SDS011;74385;53.360;6.290;2024-01-30T02:55:17;22.52;;;12.60;;
84246;SDS011;74385;53.360;6.290;2024-01-30T02:57:43;24.85;;;13.85;;
84246;SDS011;74385;53.360;6.290;2024-01-30T03:00:09;22.85;;;13.35;;
84246;SDS011;74385;53.360;6.290;2024-01-30T03:02:36;20.30;;;13.02;;
84246;SDS011;74385;53.360;6.290;2024-01-30T03:05:02;21.85;;;13.60;;
84246;SDS011;74385;53.360;6.290;2024-01-30T03:09:57;19.88;;;11.77;;
84246;SDS011;74385;53.360;6.290;2024-01-30T03:12:23;20.05;;;10.90;;
84246;SDS011;74385;53.360;6.290;2024-01-30T03:14:49;22.05;;;12.48;;
84246;SDS011;74385;53.360;6.290;2024-01-30T03:17:15;21.48;;;14.07;;
84246;SDS011;74385;53.360;6.290;2024-01-30T03:19:41;19.30;;;12.18;;
84246;SDS011;74385;53.360;6.290;2024-01-30T03:22:07;22.75;;;13.80;;
84246;SDS011;74385;53.360;6.290;2024-01-30T03:24:33;21.42;;;14.02;;
84246;SDS011;74385;53.360;6.290;2024-01-30T03:26:59;21.50;;;14.02;;
84246;SDS011;74385;53.360;6.290;2024-01-30T03:29:26;23.55;;;13.85;;
84246;SDS011;74385;53.360;6.290;2024-01-30T03:31:52;24.17;;;14.98;;
84246;SDS011;74385;53.360;6.290;2024-01-30T03:34:18;19.58;;;12.90;;
84246;SDS011;74385;53.360;6.290;2024-01-30T03:36:44;17.92;;;11.77;;
84246;SDS011;74385;53.360;6.290;2024-01-30T03:39:10;19.08;;;12.75;;
84246;SDS011;74385;53.360;6.290;2024-01-30T03:41:36;18.25;;;12.38;;
84246;SDS011;74385;53.360;6.290;2024-01-30T03:44:03;21.00;;;12.63;;
84246;SDS011;74385;53.360;6.290;2024-01-30T03:46:29;20.65;;;12.68;;
84246;SDS011;74385;53.360;6.290;2024-01-30T03:48:55;20.27;;;12.88;;
84246;SDS011;74385;53.360;6.290;2024-01-30T03:51:21;20.13;;;13.15;;
84246;SDS011;74385;53.360;6.290;2024-01-30T03:53:47;26.42;;;14.40;;
84246;SDS011;74385;53.360;6.290;2024-01-30T03:56:13;19.88;;;13.43;;
84246;SDS011;74385;53.360;6.290;2024-01-30T03:58:39;19.63;;;12.18;;
84246;SDS011;74385;53.360;6.290;2024-01-30T04:01:06;21.35;;;12.70;;
84246;SDS011;74385;53.360;6.290;2024-01-30T04:03:32;20.17;;;11.98;;
84246;SDS011;74385;53.360;6.290;2024-01-30T04:05:58;20.88;;;13.75;;
84246;SDS011;74385;53.360;6.290;2024-01-30T04:08:24;21.55;;;12.50;;
84246;SDS011;74385;53.360;6.290;2024-01-30T04:10:50;21.02;;;13.20;;
84246;SDS011;74385;53.360;6.290;2024-01-30T04:13:16;24.50;;;12.82;;
84246;SDS011;74385;53.360;6.290;2024-01-30T04:15:42;19.92;;;12.75;;
84246;SDS011;74385;53.360;6.290;2024-01-30T04:18:08;21.50;;;11.40;;
84246;SDS011;74385;53.360;6.290;2024-01-30T04:20:34;22.77;;;13.27;;
84246;SDS011;74385;53.360;6.290;2024-01-30T04:23:01;19.60;;;12.13;;
84246;SDS011;74385;53.360;6.290;2024-01-30T04:25:27;20.27;;;12.35;;
84246;SDS011;74385;53.360;6.290;2024-01-30T04:27:53;21.58;;;12.80;;
84246;SDS011;74385;53.360;6.290;2024-01-30T04:30:19;19.85;;;12.60;;
84246;SDS011;74385;53.360;6.290;2024-01-30T04:32:45;22.95;;;12.45;;
84246;SDS011;74385;53.360;6.290;2024-01-30T04:35:11;22.88;;;12.77;;
84246;SDS011;74385;53.360;6.290;2024-01-30T04:37:37;17.70;;;11.25;;
84246;SDS011;74385;53.360;6.290;2024-01-30T04:40:03;20.63;;;12.38;;
84246;SDS011;74385;53.360;6.290;2024-01-30T04:42:30;17.30;;;10.43;;
84246;SDS011;74385;53.360;6.290;2024-01-30T04:44:56;18.38;;;11.65;;
84246;SDS011;74385;53.360;6.290;2024-01-30T04:47:22;17.67;;;10.00;;
84246;SDS011;74385;53.360;6.290;2024-01-30T04:49:48;20.38;;;11.88;;
84246;SDS011;74385;53.360;6.290;2024-01-30T04:52:15;19.63;;;10.35;;
84246;SDS011;74385;53.360;6.290;2024-01-30T04:54:41;18.17;;;11.40;;
84246;SDS011;74385;53.360;6.290;2024-01-30T04:57:07;19.85;;;12.20;;
84246;SDS011;74385;53.360;6.290;2024-01-30T05:02:02;16.10;;;10.38;;
84246;SDS011;74385;53.360;6.290;2024-01-30T05:04:28;21.25;;;12.13;;
84246;SDS011;74385;53.360;6.290;2024-01-30T05:06:54;18.85;;;11.13;;
84246;SDS011;74385;53.360;6.290;2024-01-30T05:09:20;18.23;;;11.25;;
84246;SDS011;74385;53.360;6.290;2024-01-30T05:11:47;17.90;;;11.15;;
84246;SDS011;74385;53.360;6.290;2024-01-30T05:14:13;17.33;;;10.50;;
84246;SDS011;74385;53.360;6.290;2024-01-30T05:16:40;19.52;;;10.00;;
84246;SDS011;74385;53.360;6.290;2024-01-30T05:19:08;17.70;;;11.43;;
84246;SDS011;74385;53.360;6.290;2024-01-30T05:21:34;19.52;;;10.82;;
84246;SDS011;74385;53.360;6.290;2024-01-30T05:24:00;16.30;;;9.50;;
84246;SDS011;74385;53.360;6.290;2024-01-30T05:26:26;15.65;;;9.65;;
84246;SDS011;74385;53.360;6.290;2024-01-30T05:28:52;18.55;;;10.20;;
84246;SDS011;74385;53.360;6.290;2024-01-30T05:31:18;18.40;;;10.85;;
84246;SDS011;74385;53.360;6.290;2024-01-30T05:33:45;19.48;;;9.98;;
84246;SDS011;74385;53.360;6.290;2024-01-30T05:36:13;15.98;;;9.30;;
84246;SDS011;74385;53.360;6.290;2024-01-30T05:38:40;18.15;;;10.07;;
84246;SDS011;74385;53.360;6.290;2024-01-30T05:41:06;17.63;;;11.35;;
84246;SDS011;74385;53.360;6.290;2024-01-30T05:43:32;17.13;;;10.43;;
84246;SDS011;74385;53.360;6.290;2024-01-30T05:45:58;16.77;;;10.82;;
84246;SDS011;74385;53.360;6.290;2024-01-30T05:48:24;18.88;;;10.70;;
84246;SDS011;74385;53.360;6.290;2024-01-30T05:50:50;14.23;;;9.90;;
84246;SDS011;74385;53.360;6.290;2024-01-30T05:53:16;15.30;;;10.02;;
84246;SDS011;74385;53.360;6.290;2024-01-30T05:55:42;14.10;;;8.93;;
84246;SDS011;74385;53.360;6.290;2024-01-30T05:58:08;13.57;;;9.10;;
84246;SDS011;74385;53.360;6.290;2024-01-30T06:00:34;14.77;;;9.13;;
84246;SDS011;74385;53.360;6.290;2024-01-30T06:03:00;13.88;;;9.30;;
84246;SDS011;74385;53.360;6.290;2024-01-30T06:05:27;13.90;;;7.43;;
84246;SDS011;74385;53.360;6.290;2024-01-30T06:07:53;14.88;;;8.07;;
84246;SDS011;74385;53.360;6.290;2024-01-30T06:10:19;17.13;;;9.45;;
84246;SDS011;74385;53.360;6.290;2024-01-30T06:12:45;16.23;;;9.32;;
84246;SDS011;74385;53.360;6.290;2024-01-30T06:15:11;15.85;;;10.68;;
84246;SDS011;74385;53.360;6.290;2024-01-30T06:17:37;15.65;;;9.05;;
84246;SDS011;74385;53.360;6.290;2024-01-30T06:20:04;11.75;;;6.75;;
84246;SDS011;74385;53.360;6.290;2024-01-30T06:22:30;16.30;;;9.40;;
84246;SDS011;74385;53.360;6.290;2024-01-30T06:24:56;16.20;;;8.80;;
84246;SDS011;74385;53.360;6.290;2024-01-30T06:27:22;15.27;;;9.50;;
84246;SDS011;74385;53.360;6.290;2024-01-30T06:29:48;12.90;;;8.40;;
84246;SDS011;74385;53.360;6.290;2024-01-30T06:32:14;14.13;;;8.50;;
84246;SDS011;74385;53.360;6.290;2024-01-30T06:34:41;12.52;;;6.80;;
84246;SDS011;74385;53.360;6.290;2024-01-30T06:37:09;13.05;;;8.25;;
84246;SDS011;74385;53.360;6.290;2024-01-30T06:39:35;16.80;;;9.20;;
84246;SDS011;74385;53.360;6.290;2024-01-30T06:42:01;13.20;;;9.65;;
84246;SDS011;74385;53.360;6.290;2024-01-30T06:44:27;15.80;;;9.02;;
84246;SDS011;74385;53.360;6.290;2024-01-30T06:46:53;15.70;;;9.38;;
84246;SDS011;74385;53.360;6.290;2024-01-30T06:49:19;14.18;;;9.63;;
84246;SDS011;74385;53.360;6.290;2024-01-30T06:51:47;11.57;;;7.68;;
84246;SDS011;74385;53.360;6.290;2024-01-30T06:54:13;15.55;;;9.32;;
84246;SDS011;74385;53.360;6.290;2024-01-30T06:56:39;12.43;;;8.98;;
84246;SDS011;74385;53.360;6.290;2024-01-30T06:59:05;15.55;;;9.05;;
84246;SDS011;74385;53.360;6.290;2024-01-30T07:01:31;13.45;;;8.80;;
84246;SDS011;74385;53.360;6.290;2024-01-30T07:03:57;15.25;;;8.02;;
84246;SDS011;74385;53.360;6.290;2024-01-30T07:06:24;13.25;;;8.57;;
84246;SDS011;74385;53.360;6.290;2024-01-30T07:08:50;16.80;;;8.70;;
84246;SDS011;74385;53.360;6.290;2024-01-30T07:11:19;15.38;;;9.05;;
84246;SDS011;74385;53.360;6.290;2024-01-30T07:13:47;14.38;;;8.27;;
84246;SDS011;74385;53.360;6.290;2024-01-30T07:16:14;15.07;;;8.70;;
84246;SDS011;74385;53.360;6.290;2024-01-30T07:18:40;14.38;;;10.02;;
84246;SDS011;74385;53.360;6.290;2024-01-30T07:21:06;10.30;;;6.65;;
84246;SDS011;74385;53.360;6.290;2024-01-30T07:23:32;13.27;;;8.93;;
84246;SDS011;74385;53.360;6.290;2024-01-30T07:26:00;11.95;;;7.00;;
84246;SDS011;74385;53.360;6.290;2024-01-30T07:28:26;13.85;;;8.93;;
84246;SDS011;74385;53.360;6.290;2024-01-30T07:30:52;14.25;;;9.30;;
84246;SDS011;74385;53.360;6.290;2024-01-30T07:33:18;15.13;;;8.63;;
84246;SDS011;74385;53.360;6.290;2024-01-30T07:35:45;15.02;;;8.80;;
84246;SDS011;74385;53.360;6.290;2024-01-30T07:38:11;12.13;;;8.65;;
84246;SDS011;74385;53.360;6.290;2024-01-30T07:40:37;13.50;;;7.22;;
84246;SDS011;74385;53.360;6.290;2024-01-30T07:43:03;16.35;;;9.05;;
84246;SDS011;74385;53.360;6.290;2024-01-30T07:45:29;12.50;;;8.23;;
84246;SDS011;74385;53.360;6.290;2024-01-30T07:47:58;14.15;;;8.35;;
84246;SDS011;74385;53.360;6.290;2024-01-30T07:50:25;14.70;;;8.85;;
84246;SDS011;74385;53.360;6.290;2024-01-30T07:52:51;17.30;;;8.70;;
84246;SDS011;74385;53.360;6.290;2024-01-30T07:55:20;14.02;;;9.65;;
84246;SDS011;74385;53.360;6.290;2024-01-30T07:57:52;16.55;;;9.55;;
84246;SDS011;74385;53.360;6.290;2024-01-30T08:00:18;13.45;;;9.10;;
84246;SDS011;74385;53.360;6.290;2024-01-30T08:02:54;13.75;;;9.82;;
84246;SDS011;74385;53.360;6.290;2024-01-30T08:05:20;11.85;;;8.07;;
84246;SDS011;74385;53.360;6.290;2024-01-30T08:07:48;17.48;;;10.13;;
84246;SDS011;74385;53.360;6.290;2024-01-30T08:10:14;15.43;;;8.90;;
84246;SDS011;74385;53.360;6.290;2024-01-30T08:12:40;12.50;;;7.95;;
84246;SDS011;74385;53.360;6.290;2024-01-30T08:15:06;12.68;;;8.13;;
84246;SDS011;74385;53.360;6.290;2024-01-30T08:17:33;14.75;;;9.65;;
84246;SDS011;74385;53.360;6.290;2024-01-30T08:19:59;10.45;;;7.43;;
84246;SDS011;74385;53.360;6.290;2024-01-30T08:22:25;15.45;;;8.27;;
84246;SDS011;74385;53.360;6.290;2024-01-30T08:24:51;17.40;;;8.27;;
84246;SDS011;74385;53.360;6.290;2024-01-30T08:27:17;14.35;;;8.32;;
84246;SDS011;74385;53.360;6.290;2024-01-30T08:29:43;15.93;;;8.50;;
84246;SDS011;74385;53.360;6.290;2024-01-30T08:32:09;12.85;;;8.90;;
84246;SDS011;74385;53.360;6.290;2024-01-30T08:34:35;13.27;;;8.02;;
84246;SDS011;74385;53.360;6.290;2024-01-30T08:37:02;11.73;;;6.70;;
84246;SDS011;74385;53.360;6.290;2024-01-30T08:39:28;15.30;;;8.82;;
84246;SDS011;74385;53.360;6.290;2024-01-30T08:41:55;10.80;;;6.82;;
84246;SDS011;74385;53.360;6.290;2024-01-30T08:44:21;11.82;;;7.30;;
84246;SDS011;74385;53.360;6.290;2024-01-30T08:46:47;14.05;;;8.43;;
84246;SDS011;74385;53.360;6.290;2024-01-30T08:49:16;11.00;;;7.60;;
84246;SDS011;74385;53.360;6.290;2024-01-30T08:51:42;15.32;;;8.90;;
84246;SDS011;74385;53.360;6.290;2024-01-30T08:54:08;10.77;;;7.53;;
84246;SDS011;74385;53.360;6.290;2024-01-30T08:56:34;15.30;;;7.45;;
84246;SDS011;74385;53.360;6.290;2024-01-30T08:59:00;10.60;;;6.47;;
84246;SDS011;74385;53.360;6.290;2024-01-30T09:01:26;13.65;;;7.80;;
84246;SDS011;74385;53.360;6.290;2024-01-30T09:03:52;12.65;;;7.00;;
84246;SDS011;74385;53.360;6.290;2024-01-30T09:06:19;11.43;;;5.78;;
84246;SDS011;74385;53.360;6.290;2024-01-30T09:08:45;13.27;;;7.80;;
84246;SDS011;74385;53.360;6.290;2024-01-30T09:11:11;11.23;;;6.80;;
84246;SDS011;74385;53.360;6.290;2024-01-30T09:13:38;15.13;;;7.53;;
84246;SDS011;74385;53.360;6.290;2024-01-30T09:16:04;12.45;;;7.78;;
84246;SDS011;74385;53.360;6.290;2024-01-30T09:18:31;13.65;;;7.70;;
84246;SDS011;74385;53.360;6.290;2024-01-30T09:20:57;10.10;;;6.43;;
84246;SDS011;74385;53.360;6.290;2024-01-30T09:23:23;13.90;;;7.55;;
84246;SDS011;74385;53.360;6.290;2024-01-30T09:25:49;15.52;;;7.85;;
84246;SDS011;74385;53.360;6.290;2024-01-30T09:28:17;16.33;;;8.52;;
84246;SDS011;74385;53.360;6.290;2024-01-30T09:30:43;14.93;;;8.82;;
84246;SDS011;74385;53.360;6.290;2024-01-30T09:33:09;12.00;;;7.50;;
84246;SDS011;74385;53.360;6.290;2024-01-30T09:35:35;12.32;;;8.00;;
84246;SDS011;74385;53.360;6.290;2024-01-30T09:38:02;13.25;;;7.50;;
84246;SDS011;74385;53.360;6.290;2024-01-30T09:40:28;12.20;;;7.20;;
84246;SDS011;74385;53.360;6.290;2024-01-30T09:42:54;8.75;;;5.75;;
84246;SDS011;74385;53.360;6.290;2024-01-30T09:45:24;13.30;;;6.93;;
84246;SDS011;74385;53.360;6.290;2024-01-30T09:47:50;13.95;;;7.45;;
84246;SDS011;74385;53.360;6.290;2024-01-30T09:50:17;12.32;;;6.68;;
84246;SDS011;74385;53.360;6.290;2024-01-30T09:52:46;14.90;;;7.72;;
84246;SDS011;74385;53.360;6.290;2024-01-30T09:55:12;13.75;;;7.10;;
84246;SDS011;74385;53.360;6.290;2024-01-30T09:57:39;12.63;;;6.85;;
84246;SDS011;74385;53.360;6.290;2024-01-30T10:00:05;14.35;;;7.72;;
84246;SDS011;74385;53.360;6.290;2024-01-30T10:02:34;16.60;;;8.70;;
84246;SDS011;74385;53.360;6.290;2024-01-30T10:05:00;13.20;;;8.35;;
84246;SDS011;74385;53.360;6.290;2024-01-30T10:07:26;12.85;;;7.30;;
84246;SDS011;74385;53.360;6.290;2024-01-30T10:09:52;14.15;;;8.30;;
84246;SDS011;74385;53.360;6.290;2024-01-30T10:12:21;12.57;;;8.00;;
84246;SDS011;74385;53.360;6.290;2024-01-30T10:14:47;11.43;;;7.57;;
84246;SDS011;74385;53.360;6.290;2024-01-30T10:17:13;12.02;;;6.97;;
84246;SDS011;74385;53.360;6.290;2024-01-30T10:19:40;15.90;;;8.27;;
84246;SDS011;74385;53.360;6.290;2024-01-30T10:22:06;10.20;;;5.35;;
84246;SDS011;74385;53.360;6.290;2024-01-30T10:24:35;9.57;;;5.82;;
84246;SDS011;74385;53.360;6.290;2024-01-30T10:27:02;15.57;;;7.65;;
84246;SDS011;74385;53.360;6.290;2024-01-30T10:29:28;11.73;;;6.35;;
84246;SDS011;74385;53.360;6.290;2024-01-30T10:32:01;9.63;;;6.10;;
84246;SDS011;74385;53.360;6.290;2024-01-30T10:34:27;8.48;;;5.95;;
84246;SDS011;74385;53.360;6.290;2024-01-30T10:37:07;12.98;;;6.20;;
84246;SDS011;74385;53.360;6.290;2024-01-30T10:39:43;9.10;;;5.60;;
84246;SDS011;74385;53.360;6.290;2024-01-30T10:42:17;13.73;;;6.25;;
84246;SDS011;74385;53.360;6.290;2024-01-30T10:47:11;7.80;;;5.47;;
84246;SDS011;74385;53.360;6.290;2024-01-30T10:49:41;7.40;;;4.55;;
84246;SDS011;74385;53.360;6.290;2024-01-30T10:52:11;6.90;;;4.38;;
84246;SDS011;74385;53.360;6.290;2024-01-30T10:54:40;9.40;;;4.80;;
84246;SDS011;74385;53.360;6.290;2024-01-30T10:57:06;8.75;;;5.43;;
84246;SDS011;74385;53.360;6.290;2024-01-30T10:59:33;7.85;;;4.75;;
84246;SDS011;74385;53.360;6.290;2024-01-30T11:02:00;5.90;;;3.83;;
84246;SDS011;74385;53.360;6.290;2024-01-30T11:04:26;10.23;;;4.75;;
84246;SDS011;74385;53.360;6.290;2024-01-30T11:06:52;6.50;;;3.30;;
84246;SDS011;74385;53.360;6.290;2024-01-30T11:09:19;8.25;;;4.35;;
84246;SDS011;74385;53.360;6.290;2024-01-30T11:11:51;6.65;;;3.78;;
84246;SDS011;74385;53.360;6.290;2024-01-30T11:14:24;5.70;;;3.83;;
84246;SDS011;74385;53.360;6.290;2024-01-30T11:16:51;7.10;;;4.30;;
84246;SDS011;74385;53.360;6.290;2024-01-30T11:19:23;5.28;;;2.97;;
84246;SDS011;74385;53.360;6.290;2024-01-30T11:21:51;4.10;;;2.58;;
84246;SDS011;74385;53.360;6.290;2024-01-30T11:24:22;5.97;;;2.30;;
84246;SDS011;74385;53.360;6.290;2024-01-30T11:26:57;4.97;;;2.83;;
84246;SDS011;74385;53.360;6.290;2024-01-30T11:29:29;2.85;;;1.60;;
84246;SDS011;74385;53.360;6.290;2024-01-30T11:31:59;1.88;;;0.85;;
84246;SDS011;74385;53.360;6.290;2024-01-30T11:34:38;2.55;;;0.70;;
84246;SDS011;74385;53.360;6.290;2024-01-30T11:37:10;1.92;;;0.88;;
84246;SDS011;74385;53.360;6.290;2024-01-30T11:42:52;1.52;;;0.32;;
84246;SDS011;74385;53.360;6.290;2024-01-30T11:45:19;1.55;;;0.40;;
84246;SDS011;74385;53.360;6.290;2024-01-30T11:47:45;2.05;;;0.60;;
84246;SDS011;74385;53.360;6.290;2024-01-30T11:50:11;1.02;;;0.40;;
84246;SDS011;74385;53.360;6.290;2024-01-30T11:52:37;0.40;;;0.30;;
84246;SDS011;74385;53.360;6.290;2024-01-30T11:55:04;1.88;;;0.40;;
84246;SDS011;74385;53.360;6.290;2024-01-30T11:57:30;1.55;;;0.38;;
84246;SDS011;74385;53.360;6.290;2024-01-30T11:59:56;2.42;;;0.50;;
84246;SDS011;74385;53.360;6.290;2024-01-30T12:02:22;2.97;;;0.50;;
84246;SDS011;74385;53.360;6.290;2024-01-30T12:04:48;1.20;;;0.57;;
84246;SDS011;74385;53.360;6.290;2024-01-30T12:07:14;1.90;;;0.63;;
84246;SDS011;74385;53.360;6.290;2024-01-30T12:09:41;2.47;;;0.50;;
84246;SDS011;74385;53.360;6.290;2024-01-30T12:12:08;2.08;;;0.75;;
84246;SDS011;74385;53.360;6.290;2024-01-30T12:14:37;1.30;;;0.30;;
84246;SDS011;74385;53.360;6.290;2024-01-30T12:17:05;1.48;;;0.57;;
84246;SDS011;74385;53.360;6.290;2024-01-30T12:19:32;1.52;;;0.80;;
84246;SDS011;74385;53.360;6.290;2024-01-30T12:21:59;1.90;;;0.70;;
84246;SDS011;74385;53.360;6.290;2024-01-30T12:24:25;3.88;;;0.35;;
84246;SDS011;74385;53.360;6.290;2024-01-30T12:26:51;3.30;;;0.90;;
84246;SDS011;74385;53.360;6.290;2024-01-30T12:29:19;3.20;;;0.73;;
84246;SDS011;74385;53.360;6.290;2024-01-30T12:31:47;2.72;;;0.77;;
84246;SDS011;74385;53.360;6.290;2024-01-30T12:34:16;1.70;;;0.70;;
84246;SDS011;74385;53.360;6.290;2024-01-30T12:36:43;1.67;;;0.80;;
84246;SDS011;74385;53.360;6.290;2024-01-30T12:39:12;1.63;;;0.60;;
84246;SDS011;74385;53.360;6.290;2024-01-30T12:41:39;4.85;;;0.73;;
84246;SDS011;74385;53.360;6.290;2024-01-30T12:44:05;2.45;;;0.82;;
84246;SDS011;74385;53.360;6.290;2024-01-30T12:46:32;1.52;;;0.40;;
84246;SDS011;74385;53.360;6.290;2024-01-30T12:48:59;5.35;;;1.55;;
84246;SDS011;74385;53.360;6.290;2024-01-30T12:51:25;1.42;;;0.35;;
84246;SDS011;74385;53.360;6.290;2024-01-30T12:53:51;2.88;;;0.63;;
84246;SDS011;74385;53.360;6.290;2024-01-30T12:56:18;1.77;;;0.55;;
84246;SDS011;74385;53.360;6.290;2024-01-30T12:58:44;4.65;;;0.90;;
84246;SDS011;74385;53.360;6.290;2024-01-30T13:01:10;1.30;;;0.75;;
84246;SDS011;74385;53.360;6.290;2024-01-30T13:03:36;1.20;;;0.82;;
84246;SDS011;74385;53.360;6.290;2024-01-30T13:06:02;3.63;;;1.27;;
84246;SDS011;74385;53.360;6.290;2024-01-30T13:08:28;1.55;;;0.90;;
84246;SDS011;74385;53.360;6.290;2024-01-30T13:10:54;3.08;;;0.70;;
84246;SDS011;74385;53.360;6.290;2024-01-30T13:13:20;2.92;;;0.88;;
84246;SDS011;74385;53.360;6.290;2024-01-30T13:15:47;1.83;;;0.52;;
84246;SDS011;74385;53.360;6.290;2024-01-30T13:18:13;1.13;;;0.70;;
84246;SDS011;74385;53.360;6.290;2024-01-30T13:20:39;1.40;;;0.75;;
84246;SDS011;74385;53.360;6.290;2024-01-30T13:23:05;2.67;;;0.73;;
84246;SDS011;74385;53.360;6.290;2024-01-30T13:25:31;1.42;;;0.75;;
84246;SDS011;74385;53.360;6.290;2024-01-30T13:27:57;0.85;;;0.60;;
84246;SDS011;74385;53.360;6.290;2024-01-30T13:30:23;1.80;;;0.75;;
84246;SDS011;74385;53.360;6.290;2024-01-30T13:32:49;2.17;;;0.70;;
84246;SDS011;74385;53.360;6.290;2024-01-30T13:35:24;1.80;;;0.77;;
84246;SDS011;74385;53.360;6.290;2024-01-30T13:37:50;2.33;;;0.90;;
84246;SDS011;74385;53.360;6.290;2024-01-30T13:40:16;2.45;;;1.27;;
84246;SDS011;74385;53.360;6.290;2024-01-30T13:42:42;1.58;;;0.60;;
84246;SDS011;74385;53.360;6.290;2024-01-30T13:45:08;2.08;;;1.20;;
84246;SDS011;74385;53.360;6.290;2024-01-30T13:47:35;2.38;;;1.42;;
84246;SDS011;74385;53.360;6.290;2024-01-30T13:50:01;2.33;;;1.00;;
84246;SDS011;74385;53.360;6.290;2024-01-30T13:52:28;1.33;;;0.70;;
84246;SDS011;74385;53.360;6.290;2024-01-30T13:54:54;1.55;;;1.00;;
84246;SDS011;74385;53.360;6.290;2024-01-30T13:57:20;2.83;;;1.23;;
84246;SDS011;74385;53.360;6.290;2024-01-30T13:59:46;1.90;;;0.98;;
84246;SDS011;74385;53.360;6.290;2024-01-30T14:02:12;0.95;;;0.47;;
84246;SDS011;74385;53.360;6.290;2024-01-30T14:04:38;1.17;;;0.68;;
84246;SDS011;74385;53.360;6.290;2024-01-30T14:07:05;0.43;;;0.40;;
84246;SDS011;74385;53.360;6.290;2024-01-30T14:09:31;3.08;;;0.63;;
84246;SDS011;74385;53.360;6.290;2024-01-30T14:11:57;1.48;;;0.80;;
84246;SDS011;74385;53.360;6.290;2024-01-30T14:14:23;2.50;;;0.73;;
84246;SDS011;74385;53.360;6.290;2024-01-30T14:16:49;0.60;;;0.60;;
84246;SDS011;74385;53.360;6.290;2024-01-30T14:19:16;2.58;;;0.80;;
84246;SDS011;74385;53.360;6.290;2024-01-30T14:21:47;2.50;;;0.88;;
84246;SDS011;74385;53.360;6.290;2024-01-30T14:24:13;1.75;;;0.63;;
84246;SDS011;74385;53.360;6.290;2024-01-30T14:26:39;1.40;;;0.77;;
84246;SDS011;74385;53.360;6.290;2024-01-30T14:29:05;1.35;;;1.15;;
84246;SDS011;74385;53.360;6.290;2024-01-30T14:31:32;1.67;;;0.80;;
84246;SDS011;74385;53.360;6.290;2024-01-30T14:34:01;2.03;;;1.00;;
84246;SDS011;74385;53.360;6.290;2024-01-30T14:36:28;1.70;;;1.13;;
84246;SDS011;74385;53.360;6.290;2024-01-30T14:38:55;1.90;;;0.98;;
84246;SDS011;74385;53.360;6.290;2024-01-30T14:41:21;1.70;;;0.93;;